Time;durP1;ratioP1;P1;durP2;ratioP2;P2;SDS_P1;SDS_P2;PMS_P1;PMS_P2;Temp;Humidity;BMP_temperature;BMP_pressure;BME280_temperature;BME280_humidity;BME280_pressure;Samples;Min_cycle;Max_cycle;Signal;HPM_P1;HPM_P2
2022/01/16 00:04:34;;;;;;;82.95;18.27;;;;;;;;;;5049958;28;20039;-58
2022/01/16 00:07:04;;;;;;;75.00;17.50;;;;;;;;;;5048388;28;20028;-58
2022/01/16 00:09:35;;;;;;;84.80;17.48;;;;;;;;;;5031153;28;20033;-59
2022/01/16 00:12:05;;;;;;;77.15;16.98;;;;;;;;;;5029553;28;20123;-60
2022/01/16 00:14:34;;;;;;;76.53;17.35;;;;;;;;;;5048947;28;20040;-58
2022/01/16 00:17:01;;;;;;;76.75;18.55;;;;;;;;;;5047278;28;20310;-59
2022/01/16 00:19:29;;;;;;;60.17;17.65;;;;;;;;;;5024373;28;20823;-59
2022/01/16 00:21:55;;;;;;;74.18;17.15;;;;;;;;;;5029459;28;20140;-59
2022/01/16 00:24:23;;;;;;;86.75;18.20;;;;;;;;;;5049502;28;20048;-59
2022/01/16 00:26:48;;;;;;;63.60;16.75;;;;;;;;;;5047291;28;20024;-59
2022/01/16 00:29:18;;;;;;;70.15;17.30;;;;;;;;;;5048261;28;20842;-60
2022/01/16 00:31:44;;;;;;;63.35;16.77;;;;;;;;;;5047446;28;20032;-60
2022/01/16 00:37:49;;;;;;;67.20;17.08;;;;;;;;;;5048022;28;20391;-60
2022/01/16 00:40:15;;;;;;;77.97;18.52;;;;;;;;;;5017071;28;20632;-60
2022/01/16 00:42:43;;;;;;;77.63;18.55;;;;;;;;;;5021476;28;20032;-58
2022/01/16 00:45:11;;;;;;;68.50;18.20;;;;;;;;;;5029426;28;20048;-59
2022/01/16 00:47:38;;;;;;;80.55;18.52;;;;;;;;;;5016612;28;20091;-59
2022/01/16 00:50:07;;;;;;;86.00;19.50;;;;;;;;;;5047526;28;20038;-59
2022/01/16 00:52:32;;;;;;;85.15;18.77;;;;;;;;;;5046629;28;20546;-59
2022/01/16 00:55:02;;;;;;;85.82;21.10;;;;;;;;;;5018500;28;20029;-60
2022/01/16 00:57:30;;;;;;;84.38;20.13;;;;;;;;;;5031601;28;20373;-60
2022/01/16 01:00:00;;;;;;;80.65;18.88;;;;;;;;;;5049423;28;20056;-60
2022/01/16 01:02:28;;;;;;;88.43;20.33;;;;;;;;;;5032808;28;20087;-58
2022/01/16 01:04:58;;;;;;;76.18;16.70;;;;;;;;;;5039361;28;20032;-58
2022/01/16 01:07:28;;;;;;;98.28;21.42;;;;;;;;;;5031222;28;20115;-58
2022/01/16 01:09:54;;;;;;;89.07;19.30;;;;;;;;;;5029505;28;21106;-58
2022/01/16 01:12:29;;;;;;;98.68;21.50;;;;;;;;;;5014633;28;20025;-60
2022/01/16 01:15:07;;;;;;;93.35;21.63;;;;;;;;;;5029232;28;20123;-60
2022/01/16 01:17:47;;;;;;;91.22;21.08;;;;;;;;;;5046946;28;20468;-60
2022/01/16 01:20:18;;;;;;;88.53;20.73;;;;;;;;;;5029115;28;20124;-59
2022/01/16 01:22:49;;;;;;;103.55;21.65;;;;;;;;;;5029603;28;20405;-59
2022/01/16 01:25:34;;;;;;;104.18;24.70;;;;;;;;;;5030142;28;20044;-59
2022/01/16 01:28:02;;;;;;;98.70;24.58;;;;;;;;;;5028982;28;21922;-59
2022/01/16 01:30:30;;;;;;;97.15;24.27;;;;;;;;;;5047193;28;20047;-59
2022/01/16 01:33:25;;;;;;;93.28;24.83;;;;;;;;;;5049777;28;22001;-59
2022/01/16 01:35:53;;;;;;;108.50;25.30;;;;;;;;;;5018091;28;20028;-58
2022/01/16 01:38:23;;;;;;;93.25;24.17;;;;;;;;;;5016496;28;20078;-59
2022/01/16 01:41:07;;;;;;;100.28;24.25;;;;;;;;;;5017744;28;20038;-59
2022/01/16 01:51:42;;;;;;;99.05;23.17;;;;;;;;;;5046408;28;20107;-59
2022/01/16 01:54:14;;;;;;;90.07;22.38;;;;;;;;;;5046698;28;20043;-60
2022/01/16 01:56:39;;;;;;;88.50;23.05;;;;;;;;;;5046641;28;20025;-59
2022/01/16 01:59:07;;;;;;;107.20;24.13;;;;;;;;;;5027495;28;20499;-59
2022/01/16 02:01:35;;;;;;;98.78;25.08;;;;;;;;;;5046733;28;20041;-58
2022/01/16 02:04:03;;;;;;;95.53;23.15;;;;;;;;;;5030572;28;20028;-59
2022/01/16 02:06:33;;;;;;;97.15;24.58;;;;;;;;;;5027589;28;20079;-59
2022/01/16 02:09:06;;;;;;;112.28;26.10;;;;;;;;;;5046394;28;20168;-59
2022/01/16 02:11:36;;;;;;;105.72;25.45;;;;;;;;;;5045891;28;20035;-59
2022/01/16 02:36:09;;;;;;;102.60;25.38;;;;;;;;;;5029437;28;20525;-59
2022/01/16 02:38:35;;;;;;;104.15;26.38;;;;;;;;;;5028835;28;20021;-59
2022/01/16 02:41:03;;;;;;;110.18;25.33;;;;;;;;;;5028998;28;20035;-59
2022/01/16 02:43:34;;;;;;;89.93;22.48;;;;;;;;;;5029181;28;20228;-59
2022/01/16 02:46:35;;;;;;;99.65;24.65;;;;;;;;;;5021463;28;20029;-59
2022/01/16 02:48:54;;;;;;;105.22;24.63;;;;;;;;;;5026961;28;20040;-60
2022/01/16 02:51:26;;;;;;;128.13;26.70;;;;;;;;;;5045173;28;20029;-59
2022/01/16 02:53:55;;;;;;;121.95;25.90;;;;;;;;;;5036448;28;20109;-59
2022/01/16 02:56:23;;;;;;;140.57;25.45;;;;;;;;;;5045712;28;20070;-59
2022/01/16 02:58:53;;;;;;;110.68;24.58;;;;;;;;;;5028509;28;20133;-59
2022/01/16 03:01:25;;;;;;;106.68;24.08;;;;;;;;;;5044936;28;20029;-59
2022/01/16 03:03:53;;;;;;;95.60;23.83;;;;;;;;;;5028340;28;20284;-59
2022/01/16 03:06:19;;;;;;;129.60;27.35;;;;;;;;;;5024726;28;20029;-60
2022/01/16 03:08:52;;;;;;;121.15;25.67;;;;;;;;;;5029044;28;20507;-60
2022/01/16 03:11:34;;;;;;;112.10;24.27;;;;;;;;;;5028966;28;20156;-59
2022/01/16 03:13:59;;;;;;;106.80;23.67;;;;;;;;;;5044487;28;20404;-59
2022/01/16 03:16:27;;;;;;;114.43;24.27;;;;;;;;;;5046966;28;20411;-59
2022/01/16 03:21:55;;;;;;;121.90;24.88;;;;;;;;;;5044728;28;20044;-59
2022/01/16 03:24:25;;;;;;;100.20;22.42;;;;;;;;;;5029219;28;20051;-60
2022/01/16 03:26:57;;;;;;;99.72;23.45;;;;;;;;;;5006144;28;20032;-59
2022/01/16 03:29:25;;;;;;;120.65;23.50;;;;;;;;;;5036385;28;20151;-59
2022/01/16 03:31:53;;;;;;;105.80;23.23;;;;;;;;;;5042083;28;20090;-59
2022/01/16 03:34:21;;;;;;;123.13;26.85;;;;;;;;;;5045364;28;20089;-59
2022/01/16 03:36:51;;;;;;;109.10;25.50;;;;;;;;;;5044655;28;20025;-59
2022/01/16 03:39:21;;;;;;;88.07;20.90;;;;;;;;;;5029219;28;20041;-58
2022/01/16 03:41:47;;;;;;;120.32;25.20;;;;;;;;;;5027221;28;20037;-60
2022/01/16 03:44:17;;;;;;;114.75;23.67;;;;;;;;;;5027266;28;20504;-59
2022/01/16 03:46:43;;;;;;;117.22;24.52;;;;;;;;;;5013549;28;20041;-58
2022/01/16 03:49:16;;;;;;;110.20;24.45;;;;;;;;;;5048120;28;20131;-59
2022/01/16 03:51:42;;;;;;;107.78;24.38;;;;;;;;;;5048102;28;20044;-59
2022/01/16 03:54:09;;;;;;;105.60;25.38;;;;;;;;;;5020857;28;20123;-60
2022/01/16 04:00:13;;;;;;;108.10;23.43;;;;;;;;;;5048701;28;20120;-59
2022/01/16 04:02:39;;;;;;;114.60;25.70;;;;;;;;;;5014902;28;20120;-59
2022/01/16 04:05:09;;;;;;;111.60;25.38;;;;;;;;;;5017712;28;20032;-59
2022/01/16 04:07:37;;;;;;;109.88;23.70;;;;;;;;;;5031101;28;20029;-59
2022/01/16 04:10:07;;;;;;;116.60;26.73;;;;;;;;;;5018539;28;20079;-60
2022/01/16 04:12:38;;;;;;;137.13;27.42;;;;;;;;;;5047229;28;20934;-60
2022/01/16 04:17:32;;;;;;;124.25;26.02;;;;;;;;;;5049179;28;20032;-60
2022/01/16 04:20:00;;;;;;;120.18;25.70;;;;;;;;;;5013873;28;20044;-59
2022/01/16 04:22:25;;;;;;;132.50;26.00;;;;;;;;;;5030805;28;20020;-61
2022/01/16 04:24:55;;;;;;;128.23;24.98;;;;;;;;;;5021843;28;20488;-59
2022/01/16 04:27:23;;;;;;;145.35;29.63;;;;;;;;;;5021232;28;20048;-60
2022/01/16 04:29:51;;;;;;;108.80;25.23;;;;;;;;;;5030300;28;20024;-60
2022/01/16 04:32:19;;;;;;;111.10;26.27;;;;;;;;;;5045109;28;20025;-59
2022/01/16 04:34:44;;;;;;;125.30;24.10;;;;;;;;;;5032796;28;20042;-60
2022/01/16 04:37:12;;;;;;;144.20;27.40;;;;;;;;;;5047754;28;20483;-61
2022/01/16 04:39:37;;;;;;;134.43;26.70;;;;;;;;;;5000490;28;20488;-59
2022/01/16 04:44:52;;;;;;;123.72;27.63;;;;;;;;;;5048762;28;20038;-60
2022/01/16 04:47:20;;;;;;;138.80;28.05;;;;;;;;;;5013286;28;20032;-59
2022/01/16 04:49:46;;;;;;;127.03;26.25;;;;;;;;;;5048638;28;20035;-59
2022/01/16 04:52:16;;;;;;;136.73;27.80;;;;;;;;;;5047899;28;20033;-59
2022/01/16 04:54:44;;;;;;;122.15;24.95;;;;;;;;;;5029462;28;20117;-59
2022/01/16 04:57:13;;;;;;;132.23;25.30;;;;;;;;;;5038574;28;20736;-59
2022/01/16 04:59:40;;;;;;;110.97;24.50;;;;;;;;;;5047521;28;20040;-60
2022/01/16 05:02:06;;;;;;;131.05;27.15;;;;;;;;;;5015768;28;20078;-59
2022/01/16 05:04:33;;;;;;;127.88;26.95;;;;;;;;;;5048152;28;20511;-60
2022/01/16 05:07:01;;;;;;;141.63;27.25;;;;;;;;;;5031681;28;20041;-59
2022/01/16 05:09:29;;;;;;;127.85;24.48;;;;;;;;;;5022823;28;20100;-59
2022/01/16 05:11:59;;;;;;;117.82;26.08;;;;;;;;;;5029417;28;20025;-59
2022/01/16 05:17:09;;;;;;;128.63;28.37;;;;;;;;;;5048066;28;20049;-59
2022/01/16 05:19:35;;;;;;;136.75;26.63;;;;;;;;;;5047787;28;21117;-60
2022/01/16 05:22:00;;;;;;;132.55;28.48;;;;;;;;;;5032309;28;20430;-59
2022/01/16 05:24:31;;;;;;;158.77;29.95;;;;;;;;;;5045194;28;20087;-59
2022/01/16 05:26:59;;;;;;;133.50;26.95;;;;;;;;;;5047203;28;20040;-60
2022/01/16 05:29:25;;;;;;;149.48;28.40;;;;;;;;;;5014664;28;20067;-59
2022/01/16 05:31:55;;;;;;;139.00;28.10;;;;;;;;;;5039766;28;20032;-59
2022/01/16 05:34:25;;;;;;;147.10;30.40;;;;;;;;;;5050955;28;20555;-60
2022/01/16 05:36:56;;;;;;;149.98;28.98;;;;;;;;;;5029850;28;20124;-60
2022/01/16 05:39:23;;;;;;;144.98;26.77;;;;;;;;;;5048791;28;20040;-60
2022/01/16 05:41:52;;;;;;;137.75;28.27;;;;;;;;;;5030535;28;20040;-60
2022/01/16 05:44:20;;;;;;;141.80;30.38;;;;;;;;;;5039849;28;21130;-59
2022/01/16 05:46:47;;;;;;;132.38;26.73;;;;;;;;;;5029674;28;21165;-60
2022/01/16 05:49:15;;;;;;;131.98;27.60;;;;;;;;;;5048773;28;20079;-61
2022/01/16 05:51:46;;;;;;;155.68;28.80;;;;;;;;;;5014228;28;20059;-60
2022/01/16 05:54:13;;;;;;;137.82;27.40;;;;;;;;;;5030335;28;20531;-59
2022/01/16 05:56:41;;;;;;;155.48;28.30;;;;;;;;;;5031431;28;20384;-60
2022/01/16 05:59:09;;;;;;;129.32;27.23;;;;;;;;;;5028141;28;20044;-58
2022/01/16 06:01:39;;;;;;;129.02;26.58;;;;;;;;;;5010185;28;20056;-60
2022/01/16 06:04:05;;;;;;;145.65;28.73;;;;;;;;;;5027834;28;20403;-60
2022/01/16 06:06:30;;;;;;;129.50;28.45;;;;;;;;;;5047339;28;20123;-60
2022/01/16 06:08:56;;;;;;;149.77;28.48;;;;;;;;;;5029924;28;20116;-60
2022/01/16 06:11:23;;;;;;;147.38;29.60;;;;;;;;;;5027730;28;20033;-59
2022/01/16 06:13:52;;;;;;;131.30;29.05;;;;;;;;;;5030509;28;20032;-59
2022/01/16 06:16:20;;;;;;;137.18;29.70;;;;;;;;;;5046530;28;20507;-59
2022/01/16 06:18:47;;;;;;;141.05;30.75;;;;;;;;;;5046689;28;20058;-59
2022/01/16 06:21:13;;;;;;;146.70;30.65;;;;;;;;;;5024973;28;20281;-60
2022/01/16 06:23:40;;;;;;;153.68;30.85;;;;;;;;;;5013526;28;20059;-59
2022/01/16 06:26:10;;;;;;;139.32;31.38;;;;;;;;;;5047018;28;20032;-59
2022/01/16 06:28:36;;;;;;;148.30;31.70;;;;;;;;;;5020259;28;20691;-59
2022/01/16 06:31:04;;;;;;;138.60;30.13;;;;;;;;;;5029913;28;20032;-59
2022/01/16 06:33:48;;;;;;;156.98;31.45;;;;;;;;;;5032488;28;20355;-59
2022/01/16 06:36:14;;;;;;;135.88;29.55;;;;;;;;;;5030461;28;20025;-59
2022/01/16 06:38:39;;;;;;;141.48;29.33;;;;;;;;;;5047047;28;20028;-59
2022/01/16 06:41:05;;;;;;;152.10;30.90;;;;;;;;;;5046277;28;20036;-59
2022/01/16 06:43:35;;;;;;;134.52;31.38;;;;;;;;;;5004207;28;20035;-59
2022/01/16 06:46:06;;;;;;;124.72;27.70;;;;;;;;;;5044137;28;20102;-59
2022/01/16 06:48:31;;;;;;;122.00;30.58;;;;;;;;;;5023318;28;20032;-59
2022/01/16 06:50:57;;;;;;;136.45;29.67;;;;;;;;;;5044685;28;20471;-59
2022/01/16 06:53:25;;;;;;;146.63;32.97;;;;;;;;;;5030539;28;20060;-60
2022/01/16 06:55:53;;;;;;;122.32;27.23;;;;;;;;;;5043119;28;20029;-59
2022/01/16 06:58:21;;;;;;;127.40;30.15;;;;;;;;;;5029401;28;20108;-59
2022/01/16 07:00:49;;;;;;;126.75;29.67;;;;;;;;;;5013899;28;20123;-59
2022/01/16 07:03:15;;;;;;;141.88;30.42;;;;;;;;;;5036984;28;21380;-59
2022/01/16 07:05:41;;;;;;;133.10;31.77;;;;;;;;;;5028164;28;20474;-59
2022/01/16 07:08:09;;;;;;;133.52;31.77;;;;;;;;;;5026675;28;20478;-60
2022/01/16 07:10:34;;;;;;;132.50;28.92;;;;;;;;;;5043564;28;20028;-58
2022/01/16 07:13:02;;;;;;;138.73;32.45;;;;;;;;;;5026740;28;20506;-59
2022/01/16 07:15:31;;;;;;;127.22;27.35;;;;;;;;;;5043500;28;20309;-59
2022/01/16 07:17:57;;;;;;;143.20;30.83;;;;;;;;;;5048479;28;20071;-58
2022/01/16 07:20:25;;;;;;;139.93;31.45;;;;;;;;;;5015003;28;20078;-59
2022/01/16 07:22:50;;;;;;;138.93;33.60;;;;;;;;;;5013038;28;20135;-59
2022/01/16 07:25:20;;;;;;;137.73;31.25;;;;;;;;;;5045966;28;20047;-59
2022/01/16 07:27:48;;;;;;;138.93;32.33;;;;;;;;;;5047216;28;21977;-60
2022/01/16 07:30:13;;;;;;;126.85;30.65;;;;;;;;;;5051557;28;20062;-59
2022/01/16 07:32:39;;;;;;;150.13;32.63;;;;;;;;;;5014291;28;21399;-59
2022/01/16 07:35:07;;;;;;;117.90;30.60;;;;;;;;;;5003589;28;20067;-59
2022/01/16 07:37:33;;;;;;;129.95;31.02;;;;;;;;;;5030320;28;20051;-59
2022/01/16 07:39:59;;;;;;;142.00;31.63;;;;;;;;;;5016334;28;20028;-59
2022/01/16 07:42:26;;;;;;;122.72;31.33;;;;;;;;;;5047531;28;20404;-59
2022/01/16 07:44:52;;;;;;;117.82;29.90;;;;;;;;;;5019057;28;20603;-60
2022/01/16 07:47:17;;;;;;;125.53;30.95;;;;;;;;;;5049343;28;20039;-59
2022/01/16 07:49:45;;;;;;;142.48;31.30;;;;;;;;;;5031233;28;20040;-60
2022/01/16 07:52:11;;;;;;;109.75;28.83;;;;;;;;;;5017251;28;20035;-60
2022/01/16 07:54:41;;;;;;;116.32;31.02;;;;;;;;;;5031263;28;20477;-60
2022/01/16 07:57:11;;;;;;;112.47;29.15;;;;;;;;;;5038332;28;20472;-58
2022/01/16 07:59:41;;;;;;;132.55;31.17;;;;;;;;;;5011881;28;20048;-59
2022/01/16 08:02:12;;;;;;;116.68;30.90;;;;;;;;;;5018746;28;20155;-59
2022/01/16 08:04:40;;;;;;;105.50;29.30;;;;;;;;;;5030388;28;20029;-59
2022/01/16 08:07:09;;;;;;;106.22;26.83;;;;;;;;;;5031777;28;20063;-59
2022/01/16 08:09:43;;;;;;;120.97;28.85;;;;;;;;;;5031498;28;20044;-59
2022/01/16 08:12:12;;;;;;;104.60;30.27;;;;;;;;;;5014233;28;20036;-59
2022/01/16 08:14:40;;;;;;;102.53;27.65;;;;;;;;;;5027428;28;20387;-59
2022/01/16 08:17:06;;;;;;;99.40;29.42;;;;;;;;;;5030347;28;20064;-59
2022/01/16 08:19:34;;;;;;;108.82;27.02;;;;;;;;;;5043901;28;20138;-58
2022/01/16 08:22:01;;;;;;;104.90;28.05;;;;;;;;;;5015338;28;20068;-58
2022/01/16 08:24:27;;;;;;;103.47;27.42;;;;;;;;;;5029283;28;20135;-59
2022/01/16 08:26:52;;;;;;;107.13;28.83;;;;;;;;;;5028260;28;20051;-59
2022/01/16 08:29:21;;;;;;;92.68;25.48;;;;;;;;;;5015917;28;20174;-59
2022/01/16 08:31:48;;;;;;;79.97;25.20;;;;;;;;;;5030019;28;20037;-59
2022/01/16 08:34:16;;;;;;;81.07;26.90;;;;;;;;;;5015804;28;20155;-60
2022/01/16 08:36:44;;;;;;;73.57;25.27;;;;;;;;;;5048094;28;20064;-59
2022/01/16 08:39:11;;;;;;;90.32;24.85;;;;;;;;;;5008726;28;20059;-60
2022/01/16 08:41:39;;;;;;;75.97;24.23;;;;;;;;;;5026897;28;20979;-59
2022/01/16 08:44:07;;;;;;;70.00;22.17;;;;;;;;;;5048551;28;20222;-59
2022/01/16 08:46:37;;;;;;;73.32;23.38;;;;;;;;;;5030501;28;20516;-59
2022/01/16 08:49:06;;;;;;;78.85;24.75;;;;;;;;;;5029863;28;20087;-59
2022/01/16 08:51:33;;;;;;;72.20;24.27;;;;;;;;;;5046782;28;20032;-59
2022/01/16 08:53:58;;;;;;;76.45;25.52;;;;;;;;;;5030704;28;20037;-59
2022/01/16 08:56:26;;;;;;;72.43;21.80;;;;;;;;;;5022331;28;20035;-59
2022/01/16 08:58:54;;;;;;;68.45;21.15;;;;;;;;;;5014714;28;20048;-60
2022/01/16 09:01:22;;;;;;;60.05;21.85;;;;;;;;;;5023295;28;20040;-60
2022/01/16 09:03:50;;;;;;;66.00;22.60;;;;;;;;;;5001386;28;20943;-59
2022/01/16 09:06:16;;;;;;;65.03;22.63;;;;;;;;;;5028899;28;20037;-59
2022/01/16 09:08:46;;;;;;;59.45;21.38;;;;;;;;;;5011568;28;20127;-59
2022/01/16 09:11:11;;;;;;;57.15;20.58;;;;;;;;;;5047387;28;21015;-59
2022/01/16 09:13:41;;;;;;;57.55;21.15;;;;;;;;;;5043303;28;20036;-59
2022/01/16 09:16:09;;;;;;;54.30;20.10;;;;;;;;;;5028199;28;21903;-59
2022/01/16 09:18:39;;;;;;;63.67;21.83;;;;;;;;;;5029064;28;20021;-59
2022/01/16 09:21:09;;;;;;;55.78;20.25;;;;;;;;;;5028556;28;20044;-59
2022/01/16 09:23:35;;;;;;;46.90;19.00;;;;;;;;;;5026025;28;20889;-59
2022/01/16 09:26:03;;;;;;;53.95;19.85;;;;;;;;;;5028437;28;21030;-58
2022/01/16 09:28:31;;;;;;;54.65;19.70;;;;;;;;;;5046272;28;20036;-58
2022/01/16 09:30:58;;;;;;;42.80;19.13;;;;;;;;;;5045893;28;20400;-58
2022/01/16 09:33:24;;;;;;;45.30;18.38;;;;;;;;;;5038429;28;20035;-58
2022/01/16 09:35:51;;;;;;;50.60;19.05;;;;;;;;;;5027620;28;20039;-58
2022/01/16 09:38:21;;;;;;;46.92;17.33;;;;;;;;;;5028934;28;20035;-58
2022/01/16 09:40:47;;;;;;;44.75;17.77;;;;;;;;;;5028212;28;20081;-58
2022/01/16 09:43:12;;;;;;;39.13;17.38;;;;;;;;;;5043913;28;20036;-58
2022/01/16 09:45:40;;;;;;;46.30;18.10;;;;;;;;;;5045554;28;20150;-58
2022/01/16 09:48:07;;;;;;;50.83;19.58;;;;;;;;;;5028606;28;20102;-58
2022/01/16 09:50:34;;;;;;;42.30;18.67;;;;;;;;;;5046245;28;20043;-59
2022/01/16 09:53:01;;;;;;;48.10;18.52;;;;;;;;;;5031794;28;21997;-59
2022/01/16 09:55:27;;;;;;;36.83;16.63;;;;;;;;;;5044402;28;20028;-59
2022/01/16 09:57:54;;;;;;;42.30;17.55;;;;;;;;;;5010058;28;20325;-59
2022/01/16 10:00:56;;;;;;;46.30;17.88;;;;;;;;;;5014189;28;20036;-59
2022/01/16 10:03:38;;;;;;;48.95;17.23;;;;;;;;;;5024790;28;20464;-59
2022/01/16 10:06:10;;;;;;;37.92;16.48;;;;;;;;;;5048331;28;20040;-59
2022/01/16 10:08:38;;;;;;;50.50;16.65;;;;;;;;;;5045613;28;20157;-59
2022/01/16 10:11:18;;;;;;;53.58;17.40;;;;;;;;;;5028954;28;20723;-59
2022/01/16 10:14:25;;;;;;;41.35;16.67;;;;;;;;;;5046188;28;20034;-59
2022/01/16 10:16:44;;;;;;;47.33;16.92;;;;;;;;;;5023672;28;20036;-59
2022/01/16 10:19:27;;;;;;;44.05;16.63;;;;;;;;;;5013354;28;20029;-59
2022/01/16 10:21:54;;;;;;;;;;;;;;;;;;5031289;28;20028;-59
2022/01/16 10:24:22;;;;;;;40.08;16.08;;;;;;;;;;5044700;28;19924;-59
2022/01/16 10:27:12;;;;;;;37.83;16.83;;;;;;;;;;5044719;28;20049;-58
2022/01/16 10:29:41;;;;;;;40.63;16.42;;;;;;;;;;5047143;28;20028;-58
2022/01/16 10:32:20;;;;;;;49.80;16.77;;;;;;;;;;5027999;28;20103;-58
2022/01/16 10:34:53;;;;;;;35.63;16.17;;;;;;;;;;5046297;28;20052;-58
2022/01/16 10:37:18;;;;;;;40.03;14.55;;;;;;;;;;5036827;28;20040;-59
2022/01/16 10:40:10;;;;;;;44.20;16.08;;;;;;;;;;5046099;28;20031;-59
2022/01/16 10:42:41;;;;;;;40.42;15.23;;;;;;;;;;5036383;28;20041;-59
2022/01/16 10:45:11;;;;;;;45.35;14.88;;;;;;;;;;5047321;28;20131;-59
2022/01/16 10:47:39;;;;;;;40.83;14.80;;;;;;;;;;5030664;28;20035;-59
2022/01/16 10:50:07;;;;;;;53.22;16.88;;;;;;;;;;5044724;28;20021;-59
2022/01/16 10:52:51;;;;;;;42.38;14.75;;;;;;;;;;5044872;28;20025;-59
2022/01/16 10:55:20;;;;;;;37.50;14.10;;;;;;;;;;5027892;28;20036;-58
2022/01/16 10:57:45;;;;;;;36.78;14.18;;;;;;;;;;5001509;28;20024;-58
2022/01/16 11:00:16;;;;;;;44.08;15.32;;;;;;;;;;5030230;28;20036;-59
2022/01/16 11:02:48;;;;;;;31.38;13.05;;;;;;;;;;5027167;28;20025;-59
2022/01/16 11:05:23;;;;;;;38.17;13.30;;;;;;;;;;5043717;28;20028;-59
2022/01/16 11:07:57;;;;;;;43.10;15.13;;;;;;;;;;5025142;28;20033;-58
2022/01/16 11:10:33;;;;;;;32.38;13.43;;;;;;;;;;5026236;28;20733;-59
2022/01/16 11:13:00;;;;;;;39.47;13.07;;;;;;;;;;5018361;28;20458;-58
2022/01/16 11:15:30;;;;;;;29.65;11.63;;;;;;;;;;5035386;28;20032;-59
2022/01/16 11:17:56;;;;;;;31.95;12.20;;;;;;;;;;5027468;28;20044;-59
2022/01/16 11:20:27;;;;;;;40.08;11.88;;;;;;;;;;5026996;28;20033;-59
2022/01/16 11:25:32;;;;;;;28.83;12.00;;;;;;;;;;5037621;28;20862;-58
2022/01/16 11:28:04;;;;;;;33.97;12.15;;;;;;;;;;5024625;28;20033;-59
2022/01/16 11:30:34;;;;;;;30.42;11.90;;;;;;;;;;5022286;28;20199;-59
2022/01/16 11:33:02;;;;;;;28.83;11.90;;;;;;;;;;5022443;28;20029;-58
2022/01/16 11:35:29;;;;;;;35.13;11.43;;;;;;;;;;5023003;28;20065;-58
2022/01/16 11:37:57;;;;;;;33.95;12.32;;;;;;;;;;5022002;28;20033;-59
2022/01/16 11:40:27;;;;;;;26.40;10.63;;;;;;;;;;5023634;28;20102;-59
2022/01/16 11:43:10;;;;;;;34.78;11.90;;;;;;;;;;5025115;28;20876;-59
2022/01/16 11:45:47;;;;;;;33.85;10.77;;;;;;;;;;5026146;28;20036;-58
2022/01/16 11:48:12;;;;;;;28.60;10.23;;;;;;;;;;5015048;28;20271;-58
2022/01/16 11:50:40;;;;;;;29.33;10.35;;;;;;;;;;5022015;28;20038;-60
2022/01/16 11:53:05;;;;;;;28.55;9.15;;;;;;;;;;5025579;28;20470;-58
2022/01/16 11:55:37;;;;;;;30.88;10.15;;;;;;;;;;5021429;28;20028;-60
2022/01/16 11:58:07;;;;;;;23.60;9.20;;;;;;;;;;5023447;28;20032;-59
2022/01/16 12:00:44;;;;;;;24.40;9.00;;;;;;;;;;5021452;28;20074;-60
2022/01/16 12:03:43;;;;;;;26.77;9.10;;;;;;;;;;5025313;28;20032;-58
2022/01/16 12:06:33;;;;;;;26.15;8.82;;;;;;;;;;5015031;28;20041;-60
2022/01/16 12:09:00;;;;;;;23.88;8.60;;;;;;;;;;5026159;28;20039;-59
2022/01/16 12:11:37;;;;;;;26.30;8.43;;;;;;;;;;5012244;28;20029;-59
2022/01/16 12:14:03;;;;;;;22.92;7.45;;;;;;;;;;5023766;28;20045;-59
2022/01/16 12:16:59;;;;;;;31.55;7.70;;;;;;;;;;5027674;28;20028;-59
2022/01/16 12:19:41;;;;;;;21.98;6.32;;;;;;;;;;5020972;28;20124;-60
2022/01/16 12:22:08;;;;;;;21.98;6.38;;;;;;;;;;5011250;28;20205;-59
2022/01/16 12:24:44;;;;;;;16.35;6.32;;;;;;;;;;5001009;28;20090;-60
2022/01/16 12:27:22;;;;;;;16.08;6.45;;;;;;;;;;5022689;28;20032;-58
2022/01/16 12:30:17;;;;;;;21.67;5.93;;;;;;;;;;5003639;28;20048;-60
2022/01/16 12:32:43;;;;;;;;;;;;;;;;;;5022864;28;20049;-59
2022/01/16 12:35:10;;;;;;;19.47;6.70;;;;;;;;;;5028431;28;20013;-59
2022/01/16 12:37:44;;;;;;;17.45;5.88;;;;;;;;;;5024631;28;20286;-59
2022/01/16 12:40:18;;;;;;;13.95;5.22;;;;;;;;;;5028262;28;20068;-59
2022/01/16 12:42:49;;;;;;;28.63;6.63;;;;;;;;;;5026253;28;20041;-60
2022/01/16 12:45:15;;;;;;;19.85;6.28;;;;;;;;;;5022243;28;20045;-60
2022/01/16 12:47:40;;;;;;;22.90;6.38;;;;;;;;;;5027391;28;20036;-59
2022/01/16 12:50:12;;;;;;;18.25;6.40;;;;;;;;;;5024879;28;20155;-59
2022/01/16 12:52:46;;;;;;;21.50;6.45;;;;;;;;;;5026186;28;20075;-59
2022/01/16 12:55:14;;;;;;;23.85;5.43;;;;;;;;;;5028121;28;20162;-60
2022/01/16 12:57:39;;;;;;;11.07;5.80;;;;;;;;;;5024764;28;20120;-59
2022/01/16 13:00:11;;;;;;;22.25;6.22;;;;;;;;;;5025628;28;20033;-60
2022/01/16 13:02:39;;;;;;;12.15;5.25;;;;;;;;;;5028954;28;20037;-59
2022/01/16 13:05:09;;;;;;;21.60;6.90;;;;;;;;;;5010839;28;20060;-59
2022/01/16 13:07:37;;;;;;;20.58;6.70;;;;;;;;;;5012393;28;20029;-59
2022/01/16 13:10:07;;;;;;;18.17;6.13;;;;;;;;;;5028941;28;20068;-59
2022/01/16 13:12:34;;;;;;;14.15;5.68;;;;;;;;;;5024199;28;20033;-58
2022/01/16 13:15:00;;;;;;;25.42;7.13;;;;;;;;;;5028399;28;20040;-59
2022/01/16 13:17:32;;;;;;;17.67;6.55;;;;;;;;;;5028239;28;20025;-59
2022/01/16 13:20:00;;;;;;;15.82;6.10;;;;;;;;;;5025842;28;20575;-59
2022/01/16 13:22:29;;;;;;;17.40;6.25;;;;;;;;;;5024955;28;20632;-60
2022/01/16 13:24:56;;;;;;;14.00;6.60;;;;;;;;;;5028586;28;20048;-59
2022/01/16 13:27:21;;;;;;;17.25;7.45;;;;;;;;;;5024583;28;20037;-60
2022/01/16 13:30:06;;;;;;;16.00;6.18;;;;;;;;;;5026747;28;20037;-59
2022/01/16 13:32:36;;;;;;;18.40;5.63;;;;;;;;;;5025345;28;20059;-59
2022/01/16 13:35:24;;;;;;;17.27;7.00;;;;;;;;;;5025919;28;20021;-58
2022/01/16 13:37:54;;;;;;;15.48;6.28;;;;;;;;;;5023238;28;20140;-58
2022/01/16 13:40:25;;;;;;;14.70;6.95;;;;;;;;;;5027543;28;20033;-59
2022/01/16 13:45:30;;;;;;;20.70;6.68;;;;;;;;;;5027092;28;20040;-60
2022/01/16 13:48:08;;;;;;;21.77;7.18;;;;;;;;;;5028196;28;20020;-58
2022/01/16 13:50:37;;;;;;;20.85;6.50;;;;;;;;;;4998401;28;20460;-59
2022/01/16 13:53:09;;;;;;;20.75;6.90;;;;;;;;;;5040097;28;20028;-61
2022/01/16 13:56:07;;;;;;;16.13;6.63;;;;;;;;;;5042654;28;20029;-59
2022/01/16 13:58:33;;;;;;;17.48;6.00;;;;;;;;;;4993314;28;20045;-58
2022/01/16 14:01:22;;;;;;;16.88;6.47;;;;;;;;;;5024742;28;20033;-58
2022/01/16 14:03:53;;;;;;;20.08;6.72;;;;;;;;;;5023660;28;20499;-60
2022/01/16 14:06:19;;;;;;;19.65;5.97;;;;;;;;;;5024213;28;20024;-58
2022/01/16 14:08:52;;;;;;;17.33;6.65;;;;;;;;;;5024304;28;22025;-58
2022/01/16 14:11:23;;;;;;;20.92;6.45;;;;;;;;;;5027807;28;20163;-58
2022/01/16 14:13:55;;;;;;;15.43;5.95;;;;;;;;;;5025443;28;20159;-59
2022/01/16 14:19:26;;;;;;;21.92;5.68;;;;;;;;;;5024708;28;20041;-58
2022/01/16 14:21:59;;;;;;;14.18;5.22;;;;;;;;;;5021451;28;20020;-57
2022/01/16 14:24:35;;;;;;;7.55;4.68;;;;;;;;;;5028954;28;21022;-58
2022/01/16 14:27:16;;;;;;;12.05;5.10;;;;;;;;;;5028663;28;20025;-58
2022/01/16 14:29:44;;;;;;;12.73;5.50;;;;;;;;;;5045166;28;20033;-59
2022/01/16 14:32:14;;;;;;;20.73;5.53;;;;;;;;;;5025905;28;20017;-57
2022/01/16 14:34:40;;;;;;;19.38;5.43;;;;;;;;;;5041308;28;20152;-57
2022/01/16 14:37:10;;;;;;;18.10;5.82;;;;;;;;;;5036462;28;20111;-58
2022/01/16 14:39:37;;;;;;;15.98;6.00;;;;;;;;;;5028468;28;20040;-57
2022/01/16 14:42:04;;;;;;;19.13;5.43;;;;;;;;;;5026956;28;20440;-57
2022/01/16 14:44:33;;;;;;;22.90;5.85;;;;;;;;;;5044800;28;20052;-58
2022/01/16 14:47:00;;;;;;;17.20;6.50;;;;;;;;;;5041866;28;20028;-58
2022/01/16 14:49:28;;;;;;;32.33;8.13;;;;;;;;;;5025470;28;20029;-57
2022/01/16 14:51:58;;;;;;;23.23;7.30;;;;;;;;;;5017837;28;20162;-58
2022/01/16 14:54:26;;;;;;;13.25;6.55;;;;;;;;;;5045449;28;20124;-58
2022/01/16 14:56:57;;;;;;;20.02;6.68;;;;;;;;;;5025135;28;20037;-58
2022/01/16 14:59:27;;;;;;;20.02;7.50;;;;;;;;;;5021124;28;20033;-58
2022/01/16 15:01:53;;;;;;;24.58;7.75;;;;;;;;;;5032570;28;21894;-58
2022/01/16 15:04:18;;;;;;;18.17;7.47;;;;;;;;;;5009879;28;20033;-58
2022/01/16 15:06:46;;;;;;;24.05;6.97;;;;;;;;;;5024404;28;20037;-57
2022/01/16 15:09:14;;;;;;;23.13;7.70;;;;;;;;;;5026800;28;20024;-58
2022/01/16 15:11:42;;;;;;;25.65;7.97;;;;;;;;;;5012393;28;20352;-59
2022/01/16 15:14:15;;;;;;;21.83;8.55;;;;;;;;;;5027043;28;20032;-58
2022/01/16 15:16:43;;;;;;;24.05;7.95;;;;;;;;;;5001361;28;20154;-59
2022/01/16 15:19:18;;;;;;;26.75;9.10;;;;;;;;;;5043080;28;20061;-58
2022/01/16 15:24:13;;;;;;;26.90;9.45;;;;;;;;;;5043721;28;20044;-59
2022/01/16 15:26:45;;;;;;;19.35;9.25;;;;;;;;;;5027715;28;20163;-58
2022/01/16 15:29:13;;;;;;;19.83;9.25;;;;;;;;;;5043672;28;20032;-59
2022/01/16 15:31:41;;;;;;;25.38;9.40;;;;;;;;;;5025161;28;20139;-59
2022/01/16 15:34:07;;;;;;;21.58;9.20;;;;;;;;;;5024565;28;20070;-59